Time;durP1;ratioP1;P1;durP2;ratioP2;P2;SDS_P1;SDS_P2;PMS_P1;PMS_P2;Temp;Humidity;BMP_temperature;BMP_pressure;BME280_temperature;BME280_humidity;BME280_pressure;Samples;Min_cycle;Max_cycle;Signal;HPM_P1;HPM_P2
2023/10/27 00:01:08;;;;;;;41.45;17.30;;;9.80;99.90;;;;;;5011804;28;20104;-66
2023/10/27 00:03:33;;;;;;;43.92;18.42;;;9.80;99.90;;;;;;5028294;28;20102;-66
2023/10/27 00:05:59;;;;;;;41.25;17.00;;;9.80;99.90;;;;;;5009215;28;20044;-66
2023/10/27 00:08:24;;;;;;;43.10;16.90;;;9.80;99.90;;;;;;5026780;28;20030;-66
2023/10/27 00:10:50;;;;;;;34.28;15.10;;;9.80;99.90;;;;;;5009681;28;20779;-66
2023/10/27 00:13:15;;;;;;;42.50;17.98;;;9.70;99.90;;;;;;5028186;28;20071;-66
2023/10/27 00:15:41;;;;;;;43.00;18.33;;;9.70;99.90;;;;;;5008720;28;20032;-67
2023/10/27 00:18:06;;;;;;;40.88;17.38;;;9.80;99.90;;;;;;5026464;28;20413;-67
2023/10/27 00:20:32;;;;;;;35.53;16.30;;;9.70;99.90;;;;;;5008621;28;20062;-66
2023/10/27 00:22:58;;;;;;;34.28;15.57;;;9.70;99.90;;;;;;5027194;28;20033;-66
2023/10/27 00:25:24;;;;;;;36.88;16.95;;;9.70;99.90;;;;;;5026755;28;20025;-66
2023/10/27 00:27:50;;;;;;;33.45;15.57;;;9.70;99.90;;;;;;5025874;28;20104;-66
2023/10/27 00:30:15;;;;;;;40.65;15.98;;;9.70;99.90;;;;;;5027653;28;20108;-66
2023/10/27 00:32:41;;;;;;;33.03;15.25;;;9.70;99.90;;;;;;5024552;28;20225;-67
2023/10/27 00:35:07;;;;;;;35.53;16.05;;;9.70;99.90;;;;;;5017954;28;20518;-66
2023/10/27 00:37:37;;;;;;;34.38;15.80;;;9.70;99.90;;;;;;5017865;28;20034;-66
2023/10/27 00:40:03;;;;;;;32.83;15.30;;;9.70;99.90;;;;;;5027658;28;20026;-66
2023/10/27 00:42:29;;;;;;;30.10;14.27;;;9.70;99.90;;;;;;5024539;28;20337;-66
2023/10/27 00:44:54;;;;;;;29.58;14.75;;;9.70;99.90;;;;;;5030097;28;20021;-66
2023/10/27 00:47:20;;;;;;;32.47;13.93;;;9.70;99.90;;;;;;5025128;28;20037;-66
2023/10/27 00:49:45;;;;;;;28.42;14.13;;;9.70;99.90;;;;;;5031685;28;20041;-66
2023/10/27 00:52:14;;;;;;;32.15;15.10;;;9.70;99.90;;;;;;5023838;28;20033;-66
2023/10/27 00:54:42;;;;;;;22.88;12.90;;;9.60;99.90;;;;;;5031261;28;20038;-66
2023/10/27 00:57:08;;;;;;;30.92;14.90;;;9.70;99.90;;;;;;5023006;28;20021;-66
2023/10/27 00:59:36;;;;;;;31.35;15.20;;;9.60;99.90;;;;;;5012486;28;20034;-66
2023/10/27 01:02:01;;;;;;;27.90;14.43;;;9.60;99.90;;;;;;5030422;28;20564;-66
2023/10/27 01:04:27;;;;;;;25.40;13.95;;;9.60;99.90;;;;;;5011846;28;20030;-66
2023/10/27 01:06:53;;;;;;;28.65;14.45;;;9.60;99.90;;;;;;5028701;28;20087;-66
2023/10/27 01:09:19;;;;;;;25.23;13.30;;;9.60;99.90;;;;;;5012208;28;20099;-66
2023/10/27 01:11:45;;;;;;;24.52;12.77;;;9.70;99.90;;;;;;5029928;28;20028;-66
2023/10/27 01:14:11;;;;;;;31.83;16.70;;;9.60;99.90;;;;;;5010471;28;20030;-66
2023/10/27 01:16:37;;;;;;;31.70;15.43;;;9.60;99.90;;;;;;5028680;28;20022;-66
2023/10/27 01:19:02;;;;;;;26.85;14.48;;;9.60;99.90;;;;;;5029702;28;20390;-66
2023/10/27 01:21:28;;;;;;;25.67;14.50;;;9.60;99.90;;;;;;5017250;28;20049;-65
2023/10/27 01:23:53;;;;;;;28.10;14.32;;;9.60;99.90;;;;;;5029815;28;20021;-66
2023/10/27 01:26:19;;;;;;;30.33;15.05;;;9.60;99.90;;;;;;5016107;28;20112;-65
2023/10/27 01:28:44;;;;;;;30.73;16.08;;;9.60;99.90;;;;;;5031052;28;20021;-65
2023/10/27 01:31:10;;;;;;;28.95;14.30;;;9.60;99.90;;;;;;5014847;28;20030;-66
2023/10/27 01:33:35;;;;;;;24.90;14.00;;;9.60;99.90;;;;;;5030584;28;20033;-66
2023/10/27 01:36:01;;;;;;;22.92;12.90;;;9.60;99.90;;;;;;5007542;28;20067;-66
2023/10/27 01:38:26;;;;;;;29.10;15.13;;;9.60;99.90;;;;;;5030736;28;20104;-66
2023/10/27 01:40:52;;;;;;;31.27;15.55;;;9.60;99.90;;;;;;5030036;28;20087;-66
2023/10/27 01:43:17;;;;;;;31.20;15.40;;;9.60;99.90;;;;;;5030761;28;20034;-66
2023/10/27 01:45:43;;;;;;;32.67;15.60;;;9.60;99.90;;;;;;5011406;28;20044;-67
2023/10/27 01:48:08;;;;;;;28.55;15.93;;;9.60;99.90;;;;;;5027655;28;20083;-63
2023/10/27 01:50:34;;;;;;;28.45;14.93;;;9.60;99.90;;;;;;5017429;28;20581;-63
2023/10/27 01:52:59;;;;;;;28.98;15.43;;;9.60;99.90;;;;;;5028719;28;20029;-63
2023/10/27 01:55:25;;;;;;;26.70;14.70;;;9.60;99.90;;;;;;5027816;28;20460;-63
2023/10/27 01:57:50;;;;;;;27.05;14.68;;;9.50;99.90;;;;;;5010948;28;20449;-63
2023/10/27 02:00:16;;;;;;;33.80;16.60;;;9.50;99.90;;;;;;5028956;28;20020;-63
2023/10/27 02:02:41;;;;;;;35.28;16.30;;;9.50;99.90;;;;;;5029657;28;20408;-62
2023/10/27 02:05:08;;;;;;;35.42;18.88;;;9.60;99.90;;;;;;5025953;28;20042;-63
2023/10/27 02:07:34;;;;;;;31.67;15.05;;;9.50;99.90;;;;;;5028523;28;20120;-63
2023/10/27 02:09:59;;;;;;;26.88;14.93;;;9.50;99.90;;;;;;5030038;28;20116;-63
2023/10/27 02:12:28;;;;;;;34.45;17.20;;;9.50;99.90;;;;;;5025596;28;20045;-63
2023/10/27 02:14:54;;;;;;;37.28;17.48;;;9.50;99.90;;;;;;5010806;28;20037;-63
2023/10/27 02:17:20;;;;;;;31.20;16.70;;;9.50;99.90;;;;;;5028635;28;20601;-63
2023/10/27 02:19:47;;;;;;;31.98;16.95;;;9.50;99.90;;;;;;5008946;28;20048;-63
2023/10/27 02:22:13;;;;;;;27.48;15.40;;;9.50;99.90;;;;;;5029010;28;20053;-63
2023/10/27 02:24:38;;;;;;;31.20;16.20;;;9.50;99.90;;;;;;5010421;28;20069;-63
2023/10/27 02:27:04;;;;;;;28.75;15.68;;;9.50;99.90;;;;;;5027181;28;20064;-63
2023/10/27 02:29:29;;;;;;;29.35;15.13;;;9.50;99.90;;;;;;5022186;28;20083;-62
2023/10/27 02:31:55;;;;;;;28.50;15.05;;;9.50;99.90;;;;;;5014417;28;20055;-63
2023/10/27 02:34:21;;;;;;;27.27;15.35;;;9.50;99.90;;;;;;5023948;28;20072;-63
2023/10/27 02:36:46;;;;;;;27.40;14.40;;;9.50;99.90;;;;;;5013601;28;20025;-64
2023/10/27 02:39:12;;;;;;;27.98;16.63;;;9.60;99.90;;;;;;5028331;28;20115;-64
2023/10/27 02:41:38;;;;;;;32.55;16.20;;;9.50;99.90;;;;;;5028815;28;20033;-63
2023/10/27 02:44:03;;;;;;;26.48;14.75;;;9.50;99.90;;;;;;5027582;28;20556;-63
2023/10/27 02:46:30;;;;;;;37.20;18.25;;;9.60;99.90;;;;;;5025850;28;20018;-63
2023/10/27 02:48:55;;;;;;;30.23;16.48;;;9.50;99.90;;;;;;5024554;28;20033;-63
2023/10/27 02:51:21;;;;;;;35.10;18.27;;;9.50;99.90;;;;;;5009750;28;20049;-63
2023/10/27 02:53:47;;;;;;;27.27;15.57;;;9.50;99.90;;;;;;5027006;28;20079;-63
2023/10/27 02:56:13;;;;;;;32.80;16.42;;;9.50;99.90;;;;;;5028535;28;20061;-63
2023/10/27 02:58:39;;;;;;;27.55;14.73;;;9.50;99.90;;;;;;5022344;28;20111;-63
2023/10/27 03:01:11;;;;;;;25.80;14.57;;;9.50;99.90;;;;;;5029037;28;20052;-62
2023/10/27 03:03:37;;;;;;;31.63;14.85;;;9.50;99.90;;;;;;5022057;28;20050;-63
2023/10/27 03:06:03;;;;;;;29.50;14.95;;;9.50;99.90;;;;;;5027723;28;20021;-64
2023/10/27 03:08:31;;;;;;;24.88;13.98;;;9.50;99.90;;;;;;5019436;28;20071;-64
2023/10/27 03:10:56;;;;;;;25.77;13.32;;;9.50;99.90;;;;;;5028806;28;20030;-63
2023/10/27 03:13:22;;;;;;;32.22;16.85;;;9.60;99.90;;;;;;5017988;28;20034;-63
2023/10/27 03:15:47;;;;;;;27.67;14.77;;;9.60;99.90;;;;;;5028230;28;20425;-63
2023/10/27 03:18:13;;;;;;;25.23;14.20;;;9.60;99.90;;;;;;5018793;28;20029;-64
2023/10/27 03:20:38;;;;;;;28.17;16.48;;;9.60;99.90;;;;;;5009134;28;20437;-63
2023/10/27 03:23:04;;;;;;;28.27;15.13;;;9.60;99.90;;;;;;5027443;28;20501;-63
2023/10/27 03:25:29;;;;;;;28.65;15.48;;;9.60;99.90;;;;;;5009450;28;20518;-63
2023/10/27 03:27:55;;;;;;;22.70;13.43;;;9.60;99.90;;;;;;5027233;28;20033;-63
2023/10/27 03:30:21;;;;;;;23.95;13.98;;;9.60;99.90;;;;;;5028235;28;20370;-64
2023/10/27 03:32:47;;;;;;;26.58;14.27;;;9.60;99.90;;;;;;5014814;28;20029;-63
2023/10/27 03:35:14;;;;;;;25.50;13.77;;;9.60;99.90;;;;;;5017429;28;20050;-64
2023/10/27 03:37:39;;;;;;;32.90;15.90;;;9.60;99.90;;;;;;5022066;28;20045;-63
2023/10/27 03:40:06;;;;;;;27.08;15.23;;;9.60;99.90;;;;;;5028557;28;20490;-64
2023/10/27 03:42:31;;;;;;;33.08;15.63;;;9.60;99.90;;;;;;5010523;28;20044;-63
2023/10/27 03:44:57;;;;;;;33.00;15.93;;;9.60;99.90;;;;;;5028234;28;20034;-63
2023/10/27 03:47:22;;;;;;;38.38;17.55;;;9.60;99.90;;;;;;5028408;28;20033;-74
2023/10/27 03:49:48;;;;;;;32.53;15.77;;;9.50;99.90;;;;;;5028720;28;20036;-74
2023/10/27 03:52:13;;;;;;;28.20;14.60;;;9.60;99.90;;;;;;5010250;28;20026;-73
2023/10/27 03:54:39;;;;;;;42.35;16.73;;;9.60;99.90;;;;;;5028919;28;20108;-73
2023/10/27 03:57:04;;;;;;;35.08;15.73;;;9.60;99.90;;;;;;5009269;28;20034;-72
2023/10/27 03:59:30;;;;;;;28.73;13.98;;;9.50;99.90;;;;;;5028224;28;20056;-74
2023/10/27 04:01:55;;;;;;;40.42;14.95;;;9.60;99.90;;;;;;5009425;28;20052;-73
2023/10/27 04:04:21;;;;;;;59.83;16.27;;;9.50;99.90;;;;;;5027415;28;20038;-72
2023/10/27 04:06:46;;;;;;;43.30;16.23;;;9.60;99.90;;;;;;5028255;28;20386;-73
2023/10/27 04:09:12;;;;;;;45.53;16.25;;;9.50;99.90;;;;;;5026770;28;20100;-71
2023/10/27 04:11:38;;;;;;;42.22;15.32;;;9.50;99.90;;;;;;5028283;28;20057;-73
2023/10/27 04:14:04;;;;;;;66.15;16.20;;;9.50;99.90;;;;;;5023527;28;20042;-72
2023/10/27 04:16:30;;;;;;;52.55;16.63;;;9.50;99.90;;;;;;5028620;28;20037;-73
2023/10/27 04:18:56;;;;;;;39.53;15.63;;;9.40;99.90;;;;;;5028198;28;20030;-74
2023/10/27 04:21:21;;;;;;;48.50;15.70;;;9.40;99.90;;;;;;5032018;28;20482;-74
2023/10/27 04:23:47;;;;;;;56.58;18.08;;;9.40;99.90;;;;;;5013128;28;20512;-73
2023/10/27 04:26:13;;;;;;;57.80;18.63;;;9.50;99.90;;;;;;5031458;28;20034;-72
2023/10/27 04:28:39;;;;;;;57.88;16.95;;;9.40;99.90;;;;;;5025602;28;20109;-73
2023/10/27 04:31:05;;;;;;;46.58;15.68;;;9.40;99.90;;;;;;5032080;28;20112;-73
2023/10/27 04:33:31;;;;;;;50.55;15.93;;;9.40;99.90;;;;;;5024564;28;20478;-73
2023/10/27 04:35:57;;;;;;;43.25;16.33;;;9.40;99.90;;;;;;5022060;28;20042;-72
2023/10/27 04:38:22;;;;;;;45.40;16.95;;;9.40;99.90;;;;;;5022910;28;20049;-73
2023/10/27 04:40:52;;;;;;;36.63;15.20;;;9.40;99.90;;;;;;5012815;28;20101;-72
2023/10/27 04:43:17;;;;;;;37.45;13.90;;;9.40;99.90;;;;;;5029503;28;20466;-73
2023/10/27 04:45:44;;;;;;;38.95;13.95;;;9.40;99.90;;;;;;5031796;28;20068;-73
2023/10/27 04:48:10;;;;;;;34.58;13.90;;;9.40;99.90;;;;;;5021416;28;20025;-70
2023/10/27 04:50:36;;;;;;;42.08;16.58;;;9.40;99.90;;;;;;5012417;28;20450;-72
2023/10/27 04:53:01;;;;;;;46.97;17.95;;;9.40;99.90;;;;;;5030630;28;20017;-72
2023/10/27 04:55:27;;;;;;;47.50;16.45;;;9.40;99.90;;;;;;5032023;28;20100;-73
2023/10/27 04:57:52;;;;;;;43.28;16.63;;;9.50;99.90;;;;;;5017424;28;20082;-74
2023/10/27 05:00:18;;;;;;;42.20;15.27;;;9.40;99.90;;;;;;5031474;28;20029;-73
2023/10/27 05:02:43;;;;;;;37.58;15.82;;;9.40;99.90;;;;;;5017567;28;20497;-72
2023/10/27 05:05:09;;;;;;;38.33;16.70;;;9.50;99.90;;;;;;5031562;28;20489;-72
2023/10/27 05:07:36;;;;;;;41.72;16.60;;;9.50;99.90;;;;;;5015987;28;20032;-73
2023/10/27 05:10:02;;;;;;;42.55;18.17;;;9.50;99.90;;;;;;5031634;28;20057;-72
2023/10/27 05:12:28;;;;;;;51.70;18.38;;;9.50;99.90;;;;;;5013533;28;20119;-72
2023/10/27 05:14:54;;;;;;;47.88;16.90;;;9.50;99.90;;;;;;5030036;28;20017;-73
2023/10/27 05:17:19;;;;;;;43.08;15.77;;;9.50;99.90;;;;;;5030681;28;20021;-73
2023/10/27 05:19:45;;;;;;;44.70;18.33;;;9.50;99.90;;;;;;5031416;28;20371;-72
2023/10/27 05:22:12;;;;;;;52.20;19.88;;;9.50;99.90;;;;;;5012525;28;20029;-73
2023/10/27 05:24:38;;;;;;;60.60;21.05;;;9.50;99.90;;;;;;5031378;28;20409;-72
2023/10/27 05:27:04;;;;;;;53.83;20.17;;;9.50;99.90;;;;;;5011678;28;20060;-72
2023/10/27 05:29:30;;;;;;;52.05;18.63;;;9.50;99.90;;;;;;5028955;28;20104;-73
2023/10/27 05:31:55;;;;;;;47.70;17.23;;;9.40;99.90;;;;;;5011509;28;20533;-72
2023/10/27 05:34:21;;;;;;;45.65;17.85;;;9.40;99.90;;;;;;5029877;28;20548;-73
2023/10/27 05:36:46;;;;;;;46.97;17.58;;;9.40;99.90;;;;;;5018538;28;20036;-73
2023/10/27 05:39:16;;;;;;;40.40;15.80;;;9.40;99.90;;;;;;5029842;28;20040;-71
2023/10/27 05:41:46;;;;;;;41.78;16.60;;;9.50;99.90;;;;;;5030820;28;20102;-73
2023/10/27 05:44:13;;;;;;;49.00;18.25;;;9.40;99.90;;;;;;5023343;28;20033;-73
2023/10/27 05:46:39;;;;;;;45.67;18.85;;;9.40;99.90;;;;;;5030510;28;20075;-73
2023/10/27 05:49:04;;;;;;;43.28;18.23;;;9.40;99.90;;;;;;5010034;28;20037;-74
2023/10/27 05:51:31;;;;;;;45.70;18.35;;;9.40;99.90;;;;;;5030062;28;20116;-74
2023/10/27 05:53:57;;;;;;;44.72;18.25;;;9.50;99.90;;;;;;5026521;28;20033;-73
2023/10/27 05:56:22;;;;;;;47.75;21.25;;;9.50;99.90;;;;;;5028997;28;20030;-72
2023/10/27 05:58:48;;;;;;;46.80;18.00;;;9.50;99.90;;;;;;5025279;28;20029;-72
2023/10/27 06:01:14;;;;;;;45.05;18.63;;;9.50;99.90;;;;;;5030265;28;20033;-73
2023/10/27 06:03:39;;;;;;;48.75;18.50;;;9.50;99.90;;;;;;5022815;28;20053;-73
2023/10/27 06:06:05;;;;;;;50.08;19.02;;;9.50;99.90;;;;;;5028478;28;20598;-74
2023/10/27 06:08:32;;;;;;;48.20;19.33;;;9.50;99.90;;;;;;5023540;28;20033;-73
2023/10/27 06:10:57;;;;;;;48.38;19.27;;;9.50;99.90;;;;;;5029692;28;20358;-73
2023/10/27 06:13:23;;;;;;;55.03;20.00;;;9.50;99.90;;;;;;5022058;28;20516;-74
2023/10/27 06:15:48;;;;;;;42.95;19.30;;;9.50;99.90;;;;;;5029952;28;20029;-72
2023/10/27 06:18:14;;;;;;;52.42;20.83;;;9.50;99.90;;;;;;5019316;28;20049;-73
2023/10/27 06:20:39;;;;;;;49.95;21.63;;;9.60;99.90;;;;;;5010519;28;20041;-73
2023/10/27 06:23:05;;;;;;;54.55;20.85;;;9.50;99.90;;;;;;5028824;28;20400;-73
2023/10/27 06:25:30;;;;;;;52.75;20.38;;;9.60;99.90;;;;;;5010267;28;20048;-73
2023/10/27 06:27:56;;;;;;;53.17;18.70;;;9.50;99.90;;;;;;5028678;28;20059;-74
2023/10/27 06:30:23;;;;;;;51.65;20.55;;;9.60;99.90;;;;;;5029659;28;20482;-73
2023/10/27 06:32:48;;;;;;;46.58;20.10;;;9.60;99.90;;;;;;5014947;28;20087;-74
2023/10/27 06:35:14;;;;;;;47.17;20.45;;;9.60;99.90;;;;;;5017169;28;20042;-73
2023/10/27 06:37:40;;;;;;;54.95;22.45;;;9.60;99.90;;;;;;5025786;28;20049;-73
2023/10/27 06:40:06;;;;;;;51.28;22.65;;;9.60;99.90;;;;;;5027860;28;20021;-74
2023/10/27 06:42:32;;;;;;;41.47;18.98;;;9.60;99.90;;;;;;5014075;28;20229;-74
2023/10/27 06:44:57;;;;;;;43.53;19.20;;;9.60;99.90;;;;;;5029706;28;20389;-73
2023/10/27 06:47:24;;;;;;;47.15;19.80;;;9.70;99.90;;;;;;5012997;28;20037;-73
2023/10/27 06:49:49;;;;;;;51.42;22.13;;;9.70;99.90;;;;;;5029054;28;20075;-73
2023/10/27 06:52:15;;;;;;;52.03;21.65;;;9.70;99.90;;;;;;5010765;28;20409;-73
2023/10/27 06:54:40;;;;;;;49.08;20.98;;;9.70;99.90;;;;;;5029041;28;20029;-74
2023/10/27 06:57:07;;;;;;;52.00;22.08;;;9.70;99.90;;;;;;5010550;28;20516;-73
2023/10/27 06:59:33;;;;;;;46.53;21.20;;;9.70;99.90;;;;;;5029302;28;20402;-73
2023/10/27 07:01:58;;;;;;;44.88;21.80;;;9.70;99.90;;;;;;5007739;28;20474;-72
2023/10/27 07:04:24;;;;;;;47.67;21.23;;;9.70;99.90;;;;;;5028783;28;20044;-74
2023/10/27 07:06:49;;;;;;;42.42;19.83;;;9.80;99.90;;;;;;5009736;28;20040;-74
2023/10/27 07:09:15;;;;;;;38.58;19.70;;;9.80;99.90;;;;;;5026435;28;20040;-74
2023/10/27 07:11:41;;;;;;;38.30;18.40;;;9.80;99.90;;;;;;5027109;28;20120;-74
2023/10/27 07:14:06;;;;;;;39.08;19.02;;;9.80;99.90;;;;;;5027281;28;20256;-74
2023/10/27 07:16:32;;;;;;;39.17;19.85;;;9.80;99.90;;;;;;5028270;28;20030;-74
2023/10/27 07:18:57;;;;;;;41.85;19.02;;;9.80;99.90;;;;;;5025563;28;20219;-73
2023/10/27 07:21:23;;;;;;;42.55;18.67;;;9.80;99.90;;;;;;5028525;28;20497;-73
2023/10/27 07:23:48;;;;;;;38.92;18.40;;;9.80;99.90;;;;;;5024304;28;20108;-74
2023/10/27 07:26:15;;;;;;;44.92;20.13;;;9.80;99.90;;;;;;5026815;28;20029;-73
2023/10/27 07:28:41;;;;;;;42.05;20.38;;;9.80;99.90;;;;;;5023170;28;20041;-74
2023/10/27 07:31:08;;;;;;;40.03;19.20;;;9.80;99.90;;;;;;5028481;28;20187;-74
2023/10/27 07:33:35;;;;;;;39.65;18.65;;;9.80;99.90;;;;;;5018887;28;20108;-73
2023/10/27 07:36:02;;;;;;;36.85;18.63;;;9.80;99.90;;;;;;5017433;28;20042;-73
2023/10/27 07:38:28;;;;;;;44.85;20.58;;;9.80;99.90;;;;;;5019510;28;20064;-73
2023/10/27 07:40:57;;;;;;;39.22;19.77;;;9.80;99.90;;;;;;5009154;28;20412;-74
2023/10/27 07:43:23;;;;;;;42.45;19.50;;;9.80;99.90;;;;;;5027223;28;20421;-73
2023/10/27 07:45:49;;;;;;;45.25;20.75;;;9.80;99.90;;;;;;5009492;28;20048;-65
2023/10/27 07:48:14;;;;;;;45.20;21.60;;;9.80;99.90;;;;;;5027108;28;20034;-63
2023/10/27 07:50:40;;;;;;;51.70;22.67;;;9.80;99.90;;;;;;5008315;28;20272;-65
2023/10/27 07:53:05;;;;;;;48.65;22.63;;;9.80;99.90;;;;;;5027383;28;20032;-66
2023/10/27 07:55:31;;;;;;;50.92;23.38;;;9.80;99.90;;;;;;5009027;28;20061;-66
2023/10/27 07:57:57;;;;;;;39.13;19.58;;;9.70;99.90;;;;;;5026919;28;20037;-67
2023/10/27 08:00:22;;;;;;;44.72;20.77;;;9.80;99.90;;;;;;5026959;28;20031;-66
2023/10/27 08:02:51;;;;;;;44.83;21.25;;;9.80;99.90;;;;;;5013642;28;20037;-66
2023/10/27 08:05:17;;;;;;;44.83;21.30;;;9.80;99.90;;;;;;5027803;28;20029;-66
2023/10/27 08:07:44;;;;;;;45.88;21.70;;;9.80;99.90;;;;;;5013253;28;20082;-66
2023/10/27 08:10:09;;;;;;;45.88;20.58;;;9.80;99.90;;;;;;5028449;28;20025;-66
2023/10/27 08:12:35;;;;;;;49.38;23.23;;;9.80;99.90;;;;;;5009485;28;20095;-66
2023/10/27 08:15:05;;;;;;;47.97;22.55;;;9.80;99.90;;;;;;5026509;28;20053;-66
2023/10/27 08:17:32;;;;;;;42.25;20.85;;;9.80;99.90;;;;;;5008432;28;20235;-66
2023/10/27 08:19:57;;;;;;;40.78;20.42;;;9.80;99.90;;;;;;4988956;28;20462;-66
2023/10/27 08:22:23;;;;;;;38.97;19.67;;;9.80;99.90;;;;;;5026214;28;20108;-67
2023/10/27 08:24:48;;;;;;;45.08;22.13;;;9.90;99.90;;;;;;5027535;28;20029;-67
2023/10/27 08:27:14;;;;;;;40.58;19.52;;;9.90;99.90;;;;;;5008837;28;20057;-67
2023/10/27 08:29:39;;;;;;;41.08;21.38;;;9.90;99.90;;;;;;5026722;28;20104;-66
2023/10/27 08:32:05;;;;;;;38.08;19.88;;;10.00;99.90;;;;;;5024997;28;20546;-67
2023/10/27 08:34:31;;;;;;;37.85;19.88;;;10.00;99.90;;;;;;5024560;28;20072;-66
2023/10/27 08:36:57;;;;;;;35.58;17.52;;;10.00;99.90;;;;;;5012446;28;20034;-66
2023/10/27 08:39:24;;;;;;;34.67;19.30;;;10.10;99.90;;;;;;5026664;28;20036;-66
2023/10/27 08:41:49;;;;;;;31.98;16.88;;;10.10;99.90;;;;;;5027761;28;20047;-67
2023/10/27 08:44:16;;;;;;;35.95;16.80;;;10.10;99.90;;;;;;5021333;28;20553;-66
2023/10/27 08:46:42;;;;;;;38.72;19.48;;;10.10;99.90;;;;;;5027246;28;20022;-66
2023/10/27 08:49:08;;;;;;;32.67;16.40;;;10.10;99.90;;;;;;5022133;28;20057;-66
2023/10/27 08:51:35;;;;;;;34.83;19.35;;;10.20;99.90;;;;;;5027527;28;20057;-66
2023/10/27 08:54:01;;;;;;;30.25;17.50;;;10.20;99.90;;;;;;5020285;28;20505;-66
2023/10/27 08:56:26;;;;;;;31.73;16.73;;;10.30;99.90;;;;;;5027718;28;20060;-66
2023/10/27 08:58:52;;;;;;;31.50;16.02;;;10.30;99.90;;;;;;5019441;28;20053;-66
2023/10/27 09:01:17;;;;;;;31.25;17.63;;;10.30;99.90;;;;;;5008208;28;20130;-67
2023/10/27 09:04:12;;;;;;;30.70;16.77;;;10.30;99.90;;;;;;5028015;28;20317;-66
2023/10/27 09:06:39;;;;;;;26.83;15.25;;;10.40;99.90;;;;;;5011129;28;20030;-67
2023/10/27 09:09:06;;;;;;;26.77;14.68;;;10.40;99.90;;;;;;5030534;28;20032;-67
2023/10/27 09:11:43;;;;;;;28.88;16.02;;;10.40;99.90;;;;;;5030845;28;20032;-66
2023/10/27 09:14:30;;;;;;;24.42;14.20;;;10.40;99.90;;;;;;5019100;28;20068;-66
2023/10/27 09:17:06;;;;;;;23.27;13.52;;;10.40;99.90;;;;;;4990477;28;20109;-66
2023/10/27 09:19:32;;;;;;;21.52;12.70;;;10.40;99.90;;;;;;5029954;28;20045;-66
2023/10/27 09:21:58;;;;;;;23.48;14.80;;;10.40;99.90;;;;;;5030433;28;20045;-66
2023/10/27 09:24:29;;;;;;;21.23;12.13;;;10.40;99.90;;;;;;5027006;28;20033;-66
2023/10/27 09:26:56;;;;;;;26.30;14.13;;;10.50;99.90;;;;;;5029283;28;20631;-66
2023/10/27 09:29:22;;;;;;;28.20;14.00;;;10.50;99.90;;;;;;5026628;28;20113;-66
2023/10/27 09:31:50;;;;;;;22.67;12.35;;;10.60;99.90;;;;;;5030489;28;20030;-67
2023/10/27 09:34:24;;;;;;;16.70;10.13;;;10.60;99.90;;;;;;5023324;28;20049;-66
2023/10/27 09:36:54;;;;;;;18.98;11.20;;;10.60;99.90;;;;;;5015137;28;20026;-66
2023/10/27 09:39:22;;;;;;;18.38;11.05;;;10.60;99.90;;;;;;5030093;28;20028;-66
2023/10/27 09:42:06;;;;;;;18.25;10.70;;;10.60;99.90;;;;;;5028724;28;20041;-66
2023/10/27 09:44:51;;;;;;;17.67;10.63;;;10.60;99.90;;;;;;5027611;28;20468;-66
2023/10/27 09:47:33;;;;;;;16.57;8.73;;;10.60;99.90;;;;;;5030533;28;20497;-66
2023/10/27 09:50:09;;;;;;;15.70;9.60;;;10.60;99.90;;;;;;4991024;28;20073;-66
2023/10/27 09:52:34;;;;;;;21.50;9.70;;;10.60;99.90;;;;;;4992180;28;20138;-65
2023/10/27 09:55:03;;;;;;;21.30;10.35;;;10.70;99.90;;;;;;5030502;28;20164;-66
2023/10/27 09:57:29;;;;;;;20.38;11.10;;;10.70;99.90;;;;;;5009592;28;20034;-66
2023/10/27 09:59:56;;;;;;;16.83;10.27;;;10.70;99.90;;;;;;5029736;28;20087;-66
2023/10/27 10:02:23;;;;;;;16.40;10.63;;;10.70;99.90;;;;;;5011684;28;20034;-66
2023/10/27 10:04:51;;;;;;;26.52;12.57;;;10.70;99.90;;;;;;5030013;28;20030;-66
2023/10/27 10:07:27;;;;;;;16.27;11.10;;;10.80;99.90;;;;;;5030107;28;20104;-66
2023/10/27 10:09:53;;;;;;;18.70;11.77;;;10.80;99.90;;;;;;5029149;28;20092;-66
2023/10/27 10:12:18;;;;;;;17.85;11.75;;;10.70;99.90;;;;;;5010463;28;20117;-66
2023/10/27 10:14:45;;;;;;;21.10;11.68;;;10.70;99.90;;;;;;5028118;28;20035;-66
2023/10/27 10:17:10;;;;;;;18.52;10.80;;;10.70;99.90;;;;;;5029840;28;20048;-66
2023/10/27 10:19:50;;;;;;;21.23;10.80;;;10.80;99.90;;;;;;5027724;28;20057;-66
2023/10/27 10:22:37;;;;;;;17.33;10.45;;;10.90;99.90;;;;;;5029474;28;20059;-66
2023/10/27 10:25:21;;;;;;;16.45;11.23;;;11.00;99.90;;;;;;5030109;28;20037;-67
2023/10/27 10:28:08;;;;;;;16.00;10.18;;;11.10;99.90;;;;;;4994854;28;20426;-66
2023/10/27 10:30:35;;;;;;;16.52;10.18;;;11.10;99.90;;;;;;5029309;28;20071;-66
2023/10/27 10:33:14;;;;;;;16.55;10.85;;;11.10;99.90;;;;;;5016652;28;20124;-66
2023/10/27 10:35:40;;;;;;;16.42;10.70;;;11.10;99.90;;;;;;5026886;28;20639;-65
2023/10/27 10:38:24;;;;;;;17.05;10.20;;;11.10;99.90;;;;;;5008568;28;20068;-66
2023/10/27 10:41:05;;;;;;;16.42;10.30;;;11.10;99.90;;;;;;5028033;28;20497;-67
2023/10/27 10:43:36;;;;;;;14.13;9.25;;;11.20;99.90;;;;;;5006521;28;20034;-67
2023/10/27 10:46:03;;;;;;;13.38;8.50;;;11.20;99.90;;;;;;4989888;28;20038;-67
2023/10/27 10:48:31;;;;;;;16.02;9.57;;;11.30;99.90;;;;;;5026783;28;20033;-67
2023/10/27 10:51:04;;;;;;;15.80;10.75;;;11.30;99.90;;;;;;5009444;28;20037;-67
2023/10/27 10:53:30;;;;;;;16.98;10.48;;;11.20;99.90;;;;;;5006461;28;20029;-67
2023/10/27 10:56:00;;;;;;;14.30;9.43;;;11.20;99.90;;;;;;5009543;28;20558;-67
2023/10/27 10:58:30;;;;;;;14.18;9.82;;;11.10;99.90;;;;;;5028022;28;20025;-66
2023/10/27 11:00:57;;;;;;;14.95;10.43;;;11.10;99.90;;;;;;5028795;28;20036;-66
2023/10/27 11:03:24;;;;;;;14.93;9.25;;;11.10;99.90;;;;;;5015104;28;20072;-66
2023/10/27 11:05:54;;;;;;;13.50;8.68;;;11.00;99.90;;;;;;5028604;28;20034;-66
2023/10/27 11:08:24;;;;;;;14.63;9.55;;;11.00;99.90;;;;;;5003087;28;20489;-66
2023/10/27 11:11:08;;;;;;;13.07;9.52;;;11.10;99.90;;;;;;5028602;28;20014;-66
2023/10/27 11:13:49;;;;;;;17.40;10.45;;;11.10;99.90;;;;;;5016447;28;20344;-66
2023/10/27 11:16:16;;;;;;;12.27;8.13;;;11.10;99.90;;;;;;4989101;28;20030;-66
2023/10/27 11:18:44;;;;;;;13.85;8.23;;;11.10;99.90;;;;;;5025613;28;20494;-66
2023/10/27 11:21:20;;;;;;;12.15;8.15;;;11.10;99.90;;;;;;5007523;28;20227;-66
2023/10/27 11:23:47;;;;;;;11.68;8.10;;;11.00;99.90;;;;;;5025971;28;20045;-66
2023/10/27 11:26:14;;;;;;;11.32;7.72;;;11.00;99.90;;;;;;5008548;28;20034;-66
2023/10/27 11:28:44;;;;;;;16.92;9.07;;;11.00;99.90;;;;;;5026358;28;20028;-66
2023/10/27 11:31:23;;;;;;;16.38;10.15;;;11.00;99.90;;;;;;5008741;28;20038;-66
2023/10/27 11:34:05;;;;;;;14.73;9.10;;;11.00;99.90;;;;;;5009302;28;20386;-66
2023/10/27 11:36:35;;;;;;;13.57;8.82;;;11.00;99.90;;;;;;4999279;28;20039;-66
2023/10/27 11:39:13;;;;;;;15.07;8.90;;;10.90;99.90;;;;;;5026606;28;20041;-66
2023/10/27 11:41:39;;;;;;;16.10;9.35;;;11.00;99.90;;;;;;5008708;28;20025;-66
2023/10/27 11:44:05;;;;;;;12.55;8.38;;;10.90;99.90;;;;;;5027196;28;20457;-67
2023/10/27 11:46:30;;;;;;;12.15;8.15;;;10.90;99.90;;;;;;5028182;28;20364;-63
2023/10/27 11:48:56;;;;;;;15.75;9.35;;;10.90;99.90;;;;;;5020859;28;20041;-63
2023/10/27 11:51:21;;;;;;;12.27;8.20;;;10.90;99.90;;;;;;5027982;28;20041;-62
2023/10/27 11:53:48;;;;;;;13.05;9.35;;;10.90;99.90;;;;;;5019798;28;20052;-63
2023/10/27 11:56:14;;;;;;;12.52;9.15;;;10.90;99.90;;;;;;5018509;28;20026;-63
2023/10/27 11:58:39;;;;;;;13.27;8.43;;;10.90;99.90;;;;;;5026843;28;20031;-63
2023/10/27 12:01:05;;;;;;;11.30;7.55;;;11.00;99.90;;;;;;5025508;28;20049;-63
2023/10/27 12:03:31;;;;;;;9.93;7.28;;;10.90;99.90;;;;;;5020761;28;20036;-63
2023/10/27 12:05:56;;;;;;;12.82;8.38;;;11.00;99.90;;;;;;5008137;28;20101;-63
2023/10/27 12:08:22;;;;;;;11.77;8.70;;;11.00;99.90;;;;;;5024919;28;20033;-63
2023/10/27 12:10:54;;;;;;;11.57;7.93;;;11.00;99.90;;;;;;5016985;28;20041;-63
2023/10/27 12:13:21;;;;;;;13.27;7.93;;;11.00;99.90;;;;;;5008961;28;20037;-63
2023/10/27 12:15:47;;;;;;;10.93;7.63;;;11.00;99.90;;;;;;5016275;28;20014;-63
2023/10/27 12:18:16;;;;;;;11.30;7.00;;;11.00;99.90;;;;;;5015426;28;20256;-63
2023/10/27 12:20:42;;;;;;;10.18;7.50;;;11.00;99.90;;;;;;5024308;28;20075;-63
2023/10/27 12:23:11;;;;;;;12.05;7.90;;;11.00;99.90;;;;;;5021185;28;20057;-63
2023/10/27 12:25:37;;;;;;;10.93;7.07;;;11.10;99.90;;;;;;5024141;28;20512;-63
2023/10/27 12:28:03;;;;;;;11.30;7.60;;;11.10;99.90;;;;;;5025778;28;20040;-63
2023/10/27 12:30:30;;;;;;;10.93;7.32;;;11.10;99.90;;;;;;5027723;28;20478;-63
2023/10/27 12:32:56;;;;;;;11.48;7.25;;;11.10;99.90;;;;;;5023888;28;20065;-63
2023/10/27 12:35:22;;;;;;;12.82;7.22;;;11.10;99.90;;;;;;5027455;28;20049;-63